sensor_id;sensor_type;location;lat;lon;timestamp;temperature;humidity
29939;DHT22;16799;50.844;5.304;2023-07-29T00:01:35;20.20;99.90
29939;DHT22;16799;50.844;5.304;2023-07-29T00:04:02;20.30;99.90
29939;DHT22;16799;50.844;5.304;2023-07-29T00:06:27;20.20;99.90
29939;DHT22;16799;50.844;5.304;2023-07-29T00:08:53;20.10;99.90
29939;DHT22;16799;50.844;5.304;2023-07-29T00:11:19;20.10;99.90
29939;DHT22;16799;50.844;5.304;2023-07-29T00:13:44;19.90;99.90
29939;DHT22;16799;50.844;5.304;2023-07-29T00:16:10;19.80;99.90
29939;DHT22;16799;50.844;5.304;2023-07-29T00:18:36;19.70;99.90
29939;DHT22;16799;50.844;5.304;2023-07-29T00:21:01;19.60;99.90
29939;DHT22;16799;50.844;5.304;2023-07-29T00:23:27;19.60;99.90
29939;DHT22;16799;50.844;5.304;2023-07-29T00:25:53;19.60;99.90
29939;DHT22;16799;50.844;5.304;2023-07-29T00:28:18;19.70;99.90
29939;DHT22;16799;50.844;5.304;2023-07-29T00:30:44;19.60;99.90
29939;DHT22;16799;50.844;5.304;2023-07-29T00:33:10;19.70;99.90
29939;DHT22;16799;50.844;5.304;2023-07-29T00:35:35;19.80;99.90
29939;DHT22;16799;50.844;5.304;2023-07-29T00:38:01;19.90;99.90
29939;DHT22;16799;50.844;5.304;2023-07-29T00:40:28;19.90;99.90
29939;DHT22;16799;50.844;5.304;2023-07-29T00:42:54;19.90;99.90
29939;DHT22;16799;50.844;5.304;2023-07-29T00:45:20;20.00;99.90
29939;DHT22;16799;50.844;5.304;2023-07-29T00:47:46;19.90;99.90
29939;DHT22;16799;50.844;5.304;2023-07-29T00:50:13;19.90;99.90
29939;DHT22;16799;50.844;5.304;2023-07-29T00:52:39;19.80;99.90
29939;DHT22;16799;50.844;5.304;2023-07-29T00:55:05;19.70;99.90
29939;DHT22;16799;50.844;5.304;2023-07-29T00:57:32;19.60;99.90
29939;DHT22;16799;50.844;5.304;2023-07-29T00:59:59;19.70;99.90
29939;DHT22;16799;50.844;5.304;2023-07-29T01:02:26;19.70;99.90
29939;DHT22;16799;50.844;5.304;2023-07-29T01:04:53;19.70;99.90
29939;DHT22;16799;50.844;5.304;2023-07-29T01:10:05;19.60;99.90
29939;DHT22;16799;50.844;5.304;2023-07-29T01:13:24;19.60;99.90
29939;DHT22;16799;50.844;5.304;2023-07-29T01:15:36;19.60;99.90
29939;DHT22;16799;50.844;5.304;2023-07-29T01:18:10;19.50;99.90
29939;DHT22;16799;50.844;5.304;2023-07-29T01:20:41;19.60;99.90
29939;DHT22;16799;50.844;5.304;2023-07-29T01:23:08;19.50;99.90
29939;DHT22;16799;50.844;5.304;2023-07-29T01:25:33;19.50;99.90
29939;DHT22;16799;50.844;5.304;2023-07-29T01:27:59;19.40;99.90
29939;DHT22;16799;50.844;5.304;2023-07-29T01:30:30;19.40;99.90
29939;DHT22;16799;50.844;5.304;2023-07-29T01:33:16;19.40;99.90
29939;DHT22;16799;50.844;5.304;2023-07-29T01:36:03;19.40;99.90
29939;DHT22;16799;50.844;5.304;2023-07-29T01:38:36;19.40;99.90
29939;DHT22;16799;50.844;5.304;2023-07-29T01:41:04;19.30;99.90
29939;DHT22;16799;50.844;5.304;2023-07-29T01:43:32;19.20;99.90
29939;DHT22;16799;50.844;5.304;2023-07-29T01:45:58;19.00;99.90
29939;DHT22;16799;50.844;5.304;2023-07-29T01:48:24;18.90;99.90
29939;DHT22;16799;50.844;5.304;2023-07-29T01:50:50;18.80;99.90
29939;DHT22;16799;50.844;5.304;2023-07-29T01:53:16;18.70;99.90
29939;DHT22;16799;50.844;5.304;2023-07-29T01:55:42;18.60;99.90
29939;DHT22;16799;50.844;5.304;2023-07-29T01:58:08;18.60;99.90
29939;DHT22;16799;50.844;5.304;2023-07-29T02:00:33;18.50;99.90
29939;DHT22;16799;50.844;5.304;2023-07-29T02:02:59;18.50;99.90
29939;DHT22;16799;50.844;5.304;2023-07-29T02:05:24;18.40;99.90
29939;DHT22;16799;50.844;5.304;2023-07-29T02:07:50;18.30;99.90
29939;DHT22;16799;50.844;5.304;2023-07-29T02:10:16;18.30;99.90
29939;DHT22;16799;50.844;5.304;2023-07-29T02:12:41;18.10;99.90
29939;DHT22;16799;50.844;5.304;2023-07-29T02:15:07;18.20;99.90
29939;DHT22;16799;50.844;5.304;2023-07-29T02:17:34;18.10;99.90
29939;DHT22;16799;50.844;5.304;2023-07-29T02:19:59;18.10;99.90
29939;DHT22;16799;50.844;5.304;2023-07-29T02:22:25;18.10;99.90
29939;DHT22;16799;50.844;5.304;2023-07-29T02:24:51;18.00;99.90
29939;DHT22;16799;50.844;5.304;2023-07-29T02:27:16;17.90;99.90
29939;DHT22;16799;50.844;5.304;2023-07-29T02:29:42;17.90;99.90
29939;DHT22;16799;50.844;5.304;2023-07-29T02:32:07;17.80;99.90
29939;DHT22;16799;50.844;5.304;2023-07-29T02:34:33;17.80;99.90
29939;DHT22;16799;50.844;5.304;2023-07-29T02:36:59;17.80;99.90
29939;DHT22;16799;50.844;5.304;2023-07-29T02:39:25;17.80;99.90
29939;DHT22;16799;50.844;5.304;2023-07-29T02:41:51;17.80;99.90
29939;DHT22;16799;50.844;5.304;2023-07-29T02:44:16;17.80;99.90
29939;DHT22;16799;50.844;5.304;2023-07-29T02:46:42;17.70;99.90
29939;DHT22;16799;50.844;5.304;2023-07-29T02:49:08;17.70;99.90
29939;DHT22;16799;50.844;5.304;2023-07-29T02:51:33;17.60;99.90
29939;DHT22;16799;50.844;5.304;2023-07-29T02:53:59;17.60;99.90
29939;DHT22;16799;50.844;5.304;2023-07-29T02:56:25;17.60;99.90
29939;DHT22;16799;50.844;5.304;2023-07-29T02:58:50;17.70;99.90
29939;DHT22;16799;50.844;5.304;2023-07-29T03:01:19;17.70;99.90
29939;DHT22;16799;50.844;5.304;2023-07-29T03:03:44;17.70;99.90
29939;DHT22;16799;50.844;5.304;2023-07-29T03:06:13;17.80;99.90
29939;DHT22;16799;50.844;5.304;2023-07-29T03:08:39;17.80;99.90
29939;DHT22;16799;50.844;5.304;2023-07-29T03:11:09;17.70;99.90
29939;DHT22;16799;50.844;5.304;2023-07-29T03:13:36;17.60;99.90
29939;DHT22;16799;50.844;5.304;2023-07-29T03:16:13;17.70;99.90
29939;DHT22;16799;50.844;5.304;2023-07-29T03:18:42;17.60;99.90
29939;DHT22;16799;50.844;5.304;2023-07-29T03:21:09;17.50;99.90
29939;DHT22;16799;50.844;5.304;2023-07-29T03:23:35;17.40;99.90
29939;DHT22;16799;50.844;5.304;2023-07-29T03:26:02;17.40;99.90
29939;DHT22;16799;50.844;5.304;2023-07-29T03:28:35;17.30;99.90
29939;DHT22;16799;50.844;5.304;2023-07-29T03:31:01;17.30;99.90
29939;DHT22;16799;50.844;5.304;2023-07-29T03:33:27;17.30;99.90
29939;DHT22;16799;50.844;5.304;2023-07-29T03:35:53;17.30;99.90
29939;DHT22;16799;50.844;5.304;2023-07-29T03:38:18;17.30;99.90
29939;DHT22;16799;50.844;5.304;2023-07-29T03:40:44;17.30;99.90
29939;DHT22;16799;50.844;5.304;2023-07-29T03:43:10;17.30;99.90
29939;DHT22;16799;50.844;5.304;2023-07-29T03:45:36;17.40;99.90
29939;DHT22;16799;50.844;5.304;2023-07-29T03:48:03;17.50;99.90
29939;DHT22;16799;50.844;5.304;2023-07-29T03:50:29;17.70;99.90
29939;DHT22;16799;50.844;5.304;2023-07-29T03:52:55;17.70;99.90
29939;DHT22;16799;50.844;5.304;2023-07-29T03:55:21;17.60;99.90
29939;DHT22;16799;50.844;5.304;2023-07-29T03:57:47;17.50;99.90
29939;DHT22;16799;50.844;5.304;2023-07-29T04:00:12;17.50;99.90
29939;DHT22;16799;50.844;5.304;2023-07-29T04:02:38;17.60;99.90
29939;DHT22;16799;50.844;5.304;2023-07-29T04:05:05;17.60;99.90
29939;DHT22;16799;50.844;5.304;2023-07-29T04:07:34;17.70;99.90
29939;DHT22;16799;50.844;5.304;2023-07-29T04:09:59;17.60;99.90
29939;DHT22;16799;50.844;5.304;2023-07-29T04:12:26;17.50;99.90
29939;DHT22;16799;50.844;5.304;2023-07-29T04:14:51;17.50;99.90
29939;DHT22;16799;50.844;5.304;2023-07-29T04:17:17;17.60;99.90
29939;DHT22;16799;50.844;5.304;2023-07-29T04:19:43;17.50;99.90
29939;DHT22;16799;50.844;5.304;2023-07-29T04:22:08;17.30;99.90
29939;DHT22;16799;50.844;5.304;2023-07-29T04:24:34;17.20;99.90
29939;DHT22;16799;50.844;5.304;2023-07-29T04:27:00;17.20;99.90
29939;DHT22;16799;50.844;5.304;2023-07-29T04:29:25;17.20;99.90
29939;DHT22;16799;50.844;5.304;2023-07-29T04:31:51;17.20;99.90
29939;DHT22;16799;50.844;5.304;2023-07-29T04:34:19;17.30;99.90
29939;DHT22;16799;50.844;5.304;2023-07-29T04:36:46;17.20;99.90
29939;DHT22;16799;50.844;5.304;2023-07-29T04:39:12;17.20;99.90
29939;DHT22;16799;50.844;5.304;2023-07-29T04:41:37;17.10;99.90
29939;DHT22;16799;50.844;5.304;2023-07-29T04:44:03;17.10;99.90
29939;DHT22;16799;50.844;5.304;2023-07-29T04:46:29;17.10;99.90
29939;DHT22;16799;50.844;5.304;2023-07-29T04:48:55;17.10;99.90
29939;DHT22;16799;50.844;5.304;2023-07-29T04:51:21;17.10;99.90
29939;DHT22;16799;50.844;5.304;2023-07-29T04:53:47;17.10;99.90
29939;DHT22;16799;50.844;5.304;2023-07-29T04:56:12;17.10;99.90
29939;DHT22;16799;50.844;5.304;2023-07-29T04:58:38;17.10;99.90
29939;DHT22;16799;50.844;5.304;2023-07-29T05:01:06;17.00;99.90
29939;DHT22;16799;50.844;5.304;2023-07-29T05:03:31;17.00;99.90
29939;DHT22;16799;50.844;5.304;2023-07-29T05:05:58;17.00;99.90
29939;DHT22;16799;50.844;5.304;2023-07-29T05:08:26;17.10;99.90
29939;DHT22;16799;50.844;5.304;2023-07-29T05:10:52;17.10;99.90
29939;DHT22;16799;50.844;5.304;2023-07-29T05:13:20;17.10;99.90
29939;DHT22;16799;50.844;5.304;2023-07-29T05:15:47;17.10;99.90
29939;DHT22;16799;50.844;5.304;2023-07-29T05:18:13;17.10;99.90
29939;DHT22;16799;50.844;5.304;2023-07-29T05:20:39;17.20;99.90
29939;DHT22;16799;50.844;5.304;2023-07-29T05:23:05;17.30;99.90
29939;DHT22;16799;50.844;5.304;2023-07-29T05:25:30;17.40;99.90
29939;DHT22;16799;50.844;5.304;2023-07-29T05:27:56;17.40;99.90
29939;DHT22;16799;50.844;5.304;2023-07-29T05:30:22;17.50;99.90
29939;DHT22;16799;50.844;5.304;2023-07-29T05:32:48;17.50;99.90
29939;DHT22;16799;50.844;5.304;2023-07-29T05:35:14;17.70;99.90
29939;DHT22;16799;50.844;5.304;2023-07-29T05:37:40;17.80;99.90
29939;DHT22;16799;50.844;5.304;2023-07-29T05:40:06;18.00;99.90
29939;DHT22;16799;50.844;5.304;2023-07-29T05:42:33;18.00;99.90
29939;DHT22;16799;50.844;5.304;2023-07-29T05:44:59;18.00;99.90
29939;DHT22;16799;50.844;5.304;2023-07-29T05:47:25;18.00;99.90
29939;DHT22;16799;50.844;5.304;2023-07-29T05:49:51;18.10;99.90
29939;DHT22;16799;50.844;5.304;2023-07-29T05:52:16;18.10;99.90
29939;DHT22;16799;50.844;5.304;2023-07-29T05:54:42;18.20;99.90
29939;DHT22;16799;50.844;5.304;2023-07-29T05:57:09;18.30;99.90
29939;DHT22;16799;50.844;5.304;2023-07-29T05:59:35;18.30;99.90
29939;DHT22;16799;50.844;5.304;2023-07-29T06:02:00;18.40;99.90
29939;DHT22;16799;50.844;5.304;2023-07-29T06:04:26;18.40;99.90
29939;DHT22;16799;50.844;5.304;2023-07-29T06:06:52;18.30;99.90
29939;DHT22;16799;50.844;5.304;2023-07-29T06:09:18;18.30;99.90
29939;DHT22;16799;50.844;5.304;2023-07-29T06:11:43;18.20;99.90
29939;DHT22;16799;50.844;5.304;2023-07-29T06:14:09;18.20;99.90
29939;DHT22;16799;50.844;5.304;2023-07-29T06:16:35;18.10;99.90
29939;DHT22;16799;50.844;5.304;2023-07-29T06:19:00;18.10;99.90
29939;DHT22;16799;50.844;5.304;2023-07-29T06:21:26;18.30;99.90
29939;DHT22;16799;50.844;5.304;2023-07-29T06:23:52;18.40;99.90
29939;DHT22;16799;50.844;5.304;2023-07-29T06:26:18;18.50;99.90
29939;DHT22;16799;50.844;5.304;2023-07-29T06:28:43;18.70;99.90
29939;DHT22;16799;50.844;5.304;2023-07-29T06:31:09;19.00;99.90
29939;DHT22;16799;50.844;5.304;2023-07-29T06:33:35;19.20;99.90
29939;DHT22;16799;50.844;5.304;2023-07-29T06:36:00;19.50;99.90
29939;DHT22;16799;50.844;5.304;2023-07-29T06:38:26;19.50;99.90
29939;DHT22;16799;50.844;5.304;2023-07-29T06:40:52;19.40;99.90
29939;DHT22;16799;50.844;5.304;2023-07-29T06:43:18;19.40;99.90
29939;DHT22;16799;50.844;5.304;2023-07-29T06:45:43;19.30;99.90
29939;DHT22;16799;50.844;5.304;2023-07-29T06:48:09;19.10;99.90
29939;DHT22;16799;50.844;5.304;2023-07-29T06:50:35;19.00;99.90
29939;DHT22;16799;50.844;5.304;2023-07-29T06:53:00;19.00;99.90
29939;DHT22;16799;50.844;5.304;2023-07-29T06:55:26;19.20;99.90
29939;DHT22;16799;50.844;5.304;2023-07-29T06:57:52;19.30;99.90
29939;DHT22;16799;50.844;5.304;2023-07-29T07:00:17;19.60;99.90
29939;DHT22;16799;50.844;5.304;2023-07-29T07:02:43;19.70;99.90
29939;DHT22;16799;50.844;5.304;2023-07-29T07:05:09;19.90;99.90
29939;DHT22;16799;50.844;5.304;2023-07-29T07:07:34;19.90;99.90
29939;DHT22;16799;50.844;5.304;2023-07-29T07:10:00;20.10;99.90
29939;DHT22;16799;50.844;5.304;2023-07-29T07:12:26;20.20;99.90
29939;DHT22;16799;50.844;5.304;2023-07-29T07:14:52;20.20;99.90
29939;DHT22;16799;50.844;5.304;2023-07-29T07:17:17;20.50;99.90
29939;DHT22;16799;50.844;5.304;2023-07-29T07:19:43;20.40;99.90
29939;DHT22;16799;50.844;5.304;2023-07-29T07:22:09;20.30;99.90
29939;DHT22;16799;50.844;5.304;2023-07-29T07:24:35;20.10;99.90
29939;DHT22;16799;50.844;5.304;2023-07-29T07:27:00;20.10;99.90
29939;DHT22;16799;50.844;5.304;2023-07-29T07:29:26;20.00;99.90
29939;DHT22;16799;50.844;5.304;2023-07-29T07:31:53;20.20;99.90
29939;DHT22;16799;50.844;5.304;2023-07-29T07:34:20;20.40;99.90
29939;DHT22;16799;50.844;5.304;2023-07-29T07:36:46;20.50;99.90
29939;DHT22;16799;50.844;5.304;2023-07-29T07:39:12;20.80;99.90
29939;DHT22;16799;50.844;5.304;2023-07-29T07:41:38;20.90;99.90
29939;DHT22;16799;50.844;5.304;2023-07-29T07:44:03;20.60;99.90
29939;DHT22;16799;50.844;5.304;2023-07-29T07:46:29;20.70;99.90
29939;DHT22;16799;50.844;5.304;2023-07-29T07:48:55;20.80;99.90
29939;DHT22;16799;50.844;5.304;2023-07-29T07:51:20;20.80;99.90
29939;DHT22;16799;50.844;5.304;2023-07-29T07:53:46;21.00;99.90
29939;DHT22;16799;50.844;5.304;2023-07-29T07:56:12;21.20;99.90
29939;DHT22;16799;50.844;5.304;2023-07-29T07:58:38;21.40;99.90
29939;DHT22;16799;50.844;5.304;2023-07-29T08:01:04;21.60;99.90
29939;DHT22;16799;50.844;5.304;2023-07-29T08:03:30;21.50;99.90
29939;DHT22;16799;50.844;5.304;2023-07-29T08:05:56;21.60;99.90
29939;DHT22;16799;50.844;5.304;2023-07-29T08:08:22;21.80;99.90
29939;DHT22;16799;50.844;5.304;2023-07-29T08:10:47;21.90;99.90
29939;DHT22;16799;50.844;5.304;2023-07-29T08:13:13;21.60;99.90
29939;DHT22;16799;50.844;5.304;2023-07-29T08:15:39;21.50;99.90
29939;DHT22;16799;50.844;5.304;2023-07-29T08:18:06;21.70;99.90
29939;DHT22;16799;50.844;5.304;2023-07-29T08:20:32;21.90;99.90
29939;DHT22;16799;50.844;5.304;2023-07-29T08:22:58;21.90;99.90
29939;DHT22;16799;50.844;5.304;2023-07-29T08:25:24;22.20;99.90
29939;DHT22;16799;50.844;5.304;2023-07-29T08:27:49;22.20;99.90
29939;DHT22;16799;50.844;5.304;2023-07-29T08:30:15;22.00;99.90
29939;DHT22;16799;50.844;5.304;2023-07-29T08:32:41;21.80;99.90
29939;DHT22;16799;50.844;5.304;2023-07-29T08:35:07;21.60;99.90
29939;DHT22;16799;50.844;5.304;2023-07-29T08:37:33;21.60;99.90
29939;DHT22;16799;50.844;5.304;2023-07-29T08:39:59;21.60;99.90
29939;DHT22;16799;50.844;5.304;2023-07-29T08:42:29;21.70;99.90
29939;DHT22;16799;50.844;5.304;2023-07-29T08:44:56;21.80;99.90
29939;DHT22;16799;50.844;5.304;2023-07-29T08:47:24;21.80;99.90
29939;DHT22;16799;50.844;5.304;2023-07-29T08:49:51;21.80;99.90
29939;DHT22;16799;50.844;5.304;2023-07-29T08:52:18;22.00;99.90
29939;DHT22;16799;50.844;5.304;2023-07-29T08:54:44;22.20;99.90
29939;DHT22;16799;50.844;5.304;2023-07-29T08:57:10;22.10;99.90
29939;DHT22;16799;50.844;5.304;2023-07-29T08:59:36;22.30;99.90
29939;DHT22;16799;50.844;5.304;2023-07-29T09:02:03;22.50;99.90
29939;DHT22;16799;50.844;5.304;2023-07-29T09:04:28;22.50;99.90
29939;DHT22;16799;50.844;5.304;2023-07-29T09:06:56;22.70;99.90
29939;DHT22;16799;50.844;5.304;2023-07-29T09:09:21;22.90;99.90
29939;DHT22;16799;50.844;5.304;2023-07-29T09:11:48;23.40;99.90
29939;DHT22;16799;50.844;5.304;2023-07-29T09:14:14;23.60;99.90
29939;DHT22;16799;50.844;5.304;2023-07-29T09:16:40;23.60;99.90
29939;DHT22;16799;50.844;5.304;2023-07-29T09:19:06;23.90;99.90
29939;DHT22;16799;50.844;5.304;2023-07-29T09:21:32;24.00;99.90
29939;DHT22;16799;50.844;5.304;2023-07-29T09:24:03;23.70;99.90
29939;DHT22;16799;50.844;5.304;2023-07-29T09:26:29;24.10;99.90
29939;DHT22;16799;50.844;5.304;2023-07-29T09:28:58;24.30;99.90
29939;DHT22;16799;50.844;5.304;2023-07-29T09:31:25;24.80;99.90
29939;DHT22;16799;50.844;5.304;2023-07-29T09:33:58;25.30;99.90
29939;DHT22;16799;50.844;5.304;2023-07-29T09:36:24;25.30;99.90
29939;DHT22;16799;50.844;5.304;2023-07-29T09:38:56;25.40;99.90
29939;DHT22;16799;50.844;5.304;2023-07-29T09:41:27;25.40;99.90
29939;DHT22;16799;50.844;5.304;2023-07-29T09:43:57;25.30;99.90
29939;DHT22;16799;50.844;5.304;2023-07-29T09:46:24;24.90;99.90
29939;DHT22;16799;50.844;5.304;2023-07-29T09:48:53;24.40;99.90
29939;DHT22;16799;50.844;5.304;2023-07-29T09:51:21;23.90;99.90
29939;DHT22;16799;50.844;5.304;2023-07-29T09:53:48;24.00;99.90
29939;DHT22;16799;50.844;5.304;2023-07-29T09:56:15;24.50;99.90
29939;DHT22;16799;50.844;5.304;2023-07-29T09:58:43;25.20;99.90
29939;DHT22;16799;50.844;5.304;2023-07-29T10:01:11;25.50;99.90
29939;DHT22;16799;50.844;5.304;2023-07-29T10:03:37;25.50;99.90
29939;DHT22;16799;50.844;5.304;2023-07-29T10:06:04;26.00;99.90
29939;DHT22;16799;50.844;5.304;2023-07-29T10:08:31;26.00;99.90
29939;DHT22;16799;50.844;5.304;2023-07-29T10:11:07;25.10;99.90
29939;DHT22;16799;50.844;5.304;2023-07-29T10:13:33;24.40;99.90
29939;DHT22;16799;50.844;5.304;2023-07-29T10:15:59;24.40;99.90
29939;DHT22;16799;50.844;5.304;2023-07-29T10:18:29;24.60;99.90
29939;DHT22;16799;50.844;5.304;2023-07-29T10:20:58;25.00;99.90
29939;DHT22;16799;50.844;5.304;2023-07-29T10:23:32;25.60;99.90
29939;DHT22;16799;50.844;5.304;2023-07-29T10:26:04;25.00;99.90
29939;DHT22;16799;50.844;5.304;2023-07-29T10:28:31;24.80;99.90
29939;DHT22;16799;50.844;5.304;2023-07-29T10:30:58;25.10;99.90
29939;DHT22;16799;50.844;5.304;2023-07-29T10:33:25;25.40;99.90
29939;DHT22;16799;50.844;5.304;2023-07-29T10:35:52;25.10;99.90
29939;DHT22;16799;50.844;5.304;2023-07-29T10:38:21;25.00;99.90
29939;DHT22;16799;50.844;5.304;2023-07-29T10:40:52;25.10;99.90
29939;DHT22;16799;50.844;5.304;2023-07-29T10:45:57;26.50;99.90
29939;DHT22;16799;50.844;5.304;2023-07-29T10:51:29;26.10;99.90
29939;DHT22;16799;50.844;5.304;2023-07-29T10:53:56;26.20;99.90
29939;DHT22;16799;50.844;5.304;2023-07-29T10:56:30;25.60;99.90
29939;DHT22;16799;50.844;5.304;2023-07-29T11:01:50;27.00;99.90
29939;DHT22;16799;50.844;5.304;2023-07-29T11:07:18;26.60;99.90
29939;DHT22;16799;50.844;5.304;2023-07-29T11:15:01;25.80;99.90
29939;DHT22;16799;50.844;5.304;2023-07-29T11:17:29;25.10;99.90
29939;DHT22;16799;50.844;5.304;2023-07-29T11:19:58;24.10;99.90
29939;DHT22;16799;50.844;5.304;2023-07-29T11:22:25;23.30;99.90
29939;DHT22;16799;50.844;5.304;2023-07-29T11:24:51;22.90;99.90
29939;DHT22;16799;50.844;5.304;2023-07-29T11:27:17;23.00;99.90
29939;DHT22;16799;50.844;5.304;2023-07-29T11:29:43;22.90;99.90
29939;DHT22;16799;50.844;5.304;2023-07-29T11:32:09;22.90;99.90
29939;DHT22;16799;50.844;5.304;2023-07-29T11:34:35;22.80;99.90
29939;DHT22;16799;50.844;5.304;2023-07-29T11:37:01;22.50;99.90
29939;DHT22;16799;50.844;5.304;2023-07-29T11:39:26;22.20;99.90
29939;DHT22;16799;50.844;5.304;2023-07-29T11:41:52;22.00;99.90
29939;DHT22;16799;50.844;5.304;2023-07-29T11:44:18;21.70;99.90
29939;DHT22;16799;50.844;5.304;2023-07-29T11:46:44;21.10;99.90
29939;DHT22;16799;50.844;5.304;2023-07-29T11:49:10;20.90;99.90
29939;DHT22;16799;50.844;5.304;2023-07-29T11:51:36;20.60;99.90
29939;DHT22;16799;50.844;5.304;2023-07-29T11:54:02;19.70;99.90
29939;DHT22;16799;50.844;5.304;2023-07-29T11:56:29;19.20;99.90
29939;DHT22;16799;50.844;5.304;2023-07-29T11:58:56;18.80;99.90
29939;DHT22;16799;50.844;5.304;2023-07-29T12:01:22;19.10;99.90
29939;DHT22;16799;50.844;5.304;2023-07-29T12:03:49;20.10;99.90
29939;DHT22;16799;50.844;5.304;2023-07-29T12:06:15;20.90;99.90
29939;DHT22;16799;50.844;5.304;2023-07-29T12:08:42;21.10;99.90
29939;DHT22;16799;50.844;5.304;2023-07-29T12:11:08;20.90;99.90
29939;DHT22;16799;50.844;5.304;2023-07-29T12:13:36;20.90;99.90
29939;DHT22;16799;50.844;5.304;2023-07-29T12:16:02;20.80;99.90
29939;DHT22;16799;50.844;5.304;2023-07-29T12:18:36;20.20;99.90
29939;DHT22;16799;50.844;5.304;2023-07-29T12:21:02;19.70;99.90
29939;DHT22;16799;50.844;5.304;2023-07-29T12:23:29;19.60;99.90
29939;DHT22;16799;50.844;5.304;2023-07-29T12:25:59;19.60;99.90
29939;DHT22;16799;50.844;5.304;2023-07-29T12:28:25;19.80;99.90
29939;DHT22;16799;50.844;5.304;2023-07-29T12:30:55;20.10;99.90
29939;DHT22;16799;50.844;5.304;2023-07-29T12:33:35;20.10;99.90
29939;DHT22;16799;50.844;5.304;2023-07-29T12:36:02;19.50;99.90
29939;DHT22;16799;50.844;5.304;2023-07-29T12:38:28;19.60;99.90
29939;DHT22;16799;50.844;5.304;2023-07-29T12:40:55;19.80;99.90
29939;DHT22;16799;50.844;5.304;2023-07-29T12:43:21;20.20;99.90
29939;DHT22;16799;50.844;5.304;2023-07-29T12:45:49;21.80;99.90
29939;DHT22;16799;50.844;5.304;2023-07-29T12:48:15;23.80;99.90
29939;DHT22;16799;50.844;5.304;2023-07-29T12:50:40;25.10;99.90
29939;DHT22;16799;50.844;5.304;2023-07-29T12:53:07;24.80;99.90
29939;DHT22;16799;50.844;5.304;2023-07-29T12:55:33;23.70;99.90
29939;DHT22;16799;50.844;5.304;2023-07-29T12:57:59;24.10;99.90
29939;DHT22;16799;50.844;5.304;2023-07-29T13:00:25;24.20;99.90
29939;DHT22;16799;50.844;5.304;2023-07-29T13:02:51;23.80;99.90
29939;DHT22;16799;50.844;5.304;2023-07-29T13:05:16;23.50;99.90
29939;DHT22;16799;50.844;5.304;2023-07-29T13:07:42;23.80;99.90
29939;DHT22;16799;50.844;5.304;2023-07-29T13:10:11;24.00;99.90
29939;DHT22;16799;50.844;5.304;2023-07-29T13:12:38;24.50;99.90
29939;DHT22;16799;50.844;5.304;2023-07-29T13:15:04;25.60;99.90
29939;DHT22;16799;50.844;5.304;2023-07-29T13:17:30;26.70;99.90
29939;DHT22;16799;50.844;5.304;2023-07-29T13:19:56;28.30;99.90
29939;DHT22;16799;50.844;5.304;2023-07-29T13:22:21;28.60;99.90
29939;DHT22;16799;50.844;5.304;2023-07-29T13:24:47;28.90;99.90
29939;DHT22;16799;50.844;5.304;2023-07-29T13:27:13;30.20;99.90
29939;DHT22;16799;50.844;5.304;2023-07-29T13:29:39;30.90;99.90
29939;DHT22;16799;50.844;5.304;2023-07-29T13:32:05;28.80;99.90
29939;DHT22;16799;50.844;5.304;2023-07-29T13:34:31;27.80;99.90
29939;DHT22;16799;50.844;5.304;2023-07-29T13:36:57;26.80;99.90
29939;DHT22;16799;50.844;5.304;2023-07-29T13:39:23;26.50;99.90
29939;DHT22;16799;50.844;5.304;2023-07-29T13:41:49;25.50;99.90
29939;DHT22;16799;50.844;5.304;2023-07-29T13:44:14;24.40;99.90
29939;DHT22;16799;50.844;5.304;2023-07-29T13:46:40;23.70;99.90
29939;DHT22;16799;50.844;5.304;2023-07-29T13:49:05;23.20;99.90
29939;DHT22;16799;50.844;5.304;2023-07-29T13:51:31;22.90;99.90
29939;DHT22;16799;50.844;5.304;2023-07-29T13:53:57;22.40;99.90
29939;DHT22;16799;50.844;5.304;2023-07-29T13:56:22;22.10;99.90
29939;DHT22;16799;50.844;5.304;2023-07-29T13:58:48;22.00;99.90
29939;DHT22;16799;50.844;5.304;2023-07-29T14:01:14;21.90;99.90
29939;DHT22;16799;50.844;5.304;2023-07-29T14:03:39;22.20;99.90
29939;DHT22;16799;50.844;5.304;2023-07-29T14:06:05;23.00;99.90
29939;DHT22;16799;50.844;5.304;2023-07-29T14:08:31;23.80;99.90
29939;DHT22;16799;50.844;5.304;2023-07-29T14:10:56;23.20;99.90
29939;DHT22;16799;50.844;5.304;2023-07-29T14:13:22;22.80;99.90
29939;DHT22;16799;50.844;5.304;2023-07-29T14:15:48;22.50;99.90
29939;DHT22;16799;50.844;5.304;2023-07-29T14:18:13;22.40;99.90
29939;DHT22;16799;50.844;5.304;2023-07-29T14:20:39;22.30;99.90
29939;DHT22;16799;50.844;5.304;2023-07-29T14:23:04;22.30;99.90
29939;DHT22;16799;50.844;5.304;2023-07-29T14:25:30;22.20;99.90
29939;DHT22;16799;50.844;5.304;2023-07-29T14:27:56;22.20;99.90
29939;DHT22;16799;50.844;5.304;2023-07-29T14:30:21;22.10;99.90
29939;DHT22;16799;50.844;5.304;2023-07-29T14:32:48;22.20;99.90
29939;DHT22;16799;50.844;5.304;2023-07-29T14:35:14;23.30;99.90
29939;DHT22;16799;50.844;5.304;2023-07-29T14:37:39;24.90;99.90
29939;DHT22;16799;50.844;5.304;2023-07-29T14:40:06;26.70;99.90
29939;DHT22;16799;50.844;5.304;2023-07-29T14:42:31;26.20;99.90
29939;DHT22;16799;50.844;5.304;2023-07-29T14:44:57;26.30;99.90
29939;DHT22;16799;50.844;5.304;2023-07-29T14:47:23;25.70;99.90
29939;DHT22;16799;50.844;5.304;2023-07-29T14:49:48;25.80;99.90
29939;DHT22;16799;50.844;5.304;2023-07-29T14:52:14;26.40;99.90
29939;DHT22;16799;50.844;5.304;2023-07-29T14:54:39;26.40;99.90
29939;DHT22;16799;50.844;5.304;2023-07-29T14:57:06;26.30;99.90
29939;DHT22;16799;50.844;5.304;2023-07-29T14:59:32;25.50;99.90
29939;DHT22;16799;50.844;5.304;2023-07-29T15:01:58;25.50;99.90
29939;DHT22;16799;50.844;5.304;2023-07-29T15:04:24;27.90;99.90
29939;DHT22;16799;50.844;5.304;2023-07-29T15:06:50;29.70;99.90
29939;DHT22;16799;50.844;5.304;2023-07-29T15:09:16;31.20;99.90
29939;DHT22;16799;50.844;5.304;2023-07-29T15:11:41;32.90;96.60
29939;DHT22;16799;50.844;5.304;2023-07-29T15:14:07;33.40;94.30
29939;DHT22;16799;50.844;5.304;2023-07-29T15:16:33;31.00;94.50
29939;DHT22;16799;50.844;5.304;2023-07-29T15:19:03;29.00;99.90
29939;DHT22;16799;50.844;5.304;2023-07-29T15:21:31;28.50;99.90
29939;DHT22;16799;50.844;5.304;2023-07-29T15:23:59;27.90;99.90
29939;DHT22;16799;50.844;5.304;2023-07-29T15:26:24;27.20;99.90
29939;DHT22;16799;50.844;5.304;2023-07-29T15:28:50;27.30;99.90
29939;DHT22;16799;50.844;5.304;2023-07-29T15:31:16;26.60;99.90
29939;DHT22;16799;50.844;5.304;2023-07-29T15:33:41;26.20;99.90
29939;DHT22;16799;50.844;5.304;2023-07-29T15:36:07;25.80;99.90
29939;DHT22;16799;50.844;5.304;2023-07-29T15:38:33;25.30;99.90
29939;DHT22;16799;50.844;5.304;2023-07-29T15:41:00;25.10;99.90
29939;DHT22;16799;50.844;5.304;2023-07-29T15:43:26;24.60;99.90
29939;DHT22;16799;50.844;5.304;2023-07-29T15:45:52;23.90;99.90